Time;durP1;ratioP1;P1;durP2;ratioP2;P2;SDS_P1;SDS_P2;PMS_P1;PMS_P2;Temp;Humidity;BMP_temperature;BMP_pressure;BME280_temperature;BME280_humidity;BME280_pressure;Samples;Min_cycle;Max_cycle;Signal;HPM_P1;HPM_P2
2023/05/16 00:02:27;;;;;;;24.00;20.25;;;10.40;99.90;;;;;;6166200;23;20185;-83
2023/05/16 00:04:54;;;;;;;23.77;21.52;;;10.50;99.90;;;;;;6164273;23;20177;-81
2023/05/16 00:07:21;;;;;;;27.23;23.80;;;10.40;99.90;;;;;;6170434;23;20181;-86
2023/05/16 00:10:08;;;;;;;24.40;21.85;;;10.60;99.90;;;;;;6180855;23;20196;-85
2023/05/16 00:12:36;;;;;;;24.10;21.48;;;10.60;99.90;;;;;;6155840;23;20177;-85
2023/05/16 00:15:23;;;;;;;24.70;22.10;;;10.50;99.90;;;;;;6169909;23;20168;-85
2023/05/16 00:17:50;;;;;;;24.90;22.38;;;10.60;99.90;;;;;;6145794;23;20240;-84
2023/05/16 00:20:21;;;;;;;28.10;24.02;;;10.60;99.90;;;;;;6171954;23;20566;-83
2023/05/16 00:23:21;;;;;;;24.33;21.75;;;10.50;99.90;;;;;;6137287;23;20222;-84
2023/05/16 00:25:48;;;;;;;26.70;20.67;;;10.70;99.90;;;;;;6156820;23;20188;-83
2023/05/16 00:28:15;;;;;;;22.95;20.60;;;10.70;99.90;;;;;;6142416;23;20188;-85
2023/05/16 00:30:42;;;;;;;23.50;21.10;;;10.80;99.90;;;;;;6162863;23;20231;-82
2023/05/16 00:33:09;;;;;;;26.05;23.45;;;10.70;99.90;;;;;;6142812;23;20177;-83
2023/05/16 00:35:38;;;;;;;24.02;21.52;;;10.80;99.90;;;;;;6175911;23;20173;-83
2023/05/16 00:38:05;;;;;;;26.02;23.38;;;10.70;99.90;;;;;;6166559;23;20185;-85
2023/05/16 00:40:32;;;;;;;25.65;22.98;;;10.80;99.90;;;;;;6163345;23;20224;-85
2023/05/16 00:42:59;;;;;;;27.60;22.70;;;10.70;99.90;;;;;;6163252;23;20301;-83
2023/05/16 00:45:28;;;;;;;27.92;25.13;;;10.80;99.90;;;;;;6163142;23;20203;-84
2023/05/16 00:47:55;;;;;;;30.23;24.00;;;10.80;99.90;;;;;;6163239;23;20180;-83
2023/05/16 00:50:25;;;;;;;27.73;24.33;;;10.70;99.90;;;;;;6162469;23;20247;-83
2023/05/16 00:52:52;;;;;;;30.88;24.50;;;10.60;99.90;;;;;;6162561;23;20188;-84
2023/05/16 00:55:19;;;;;;;30.33;24.17;;;10.60;99.90;;;;;;6163339;23;20188;-84
2023/05/16 00:57:46;;;;;;;28.83;25.88;;;10.60;99.90;;;;;;6163132;23;20181;-83
2023/05/16 01:00:14;;;;;;;35.20;27.65;;;10.70;99.90;;;;;;6164278;23;20503;-85
2023/05/16 01:02:41;;;;;;;32.53;27.13;;;10.60;99.90;;;;;;6163349;23;20244;-81
2023/05/16 01:05:09;;;;;;;27.05;24.20;;;10.80;99.90;;;;;;6165715;23;20173;-82
2023/05/16 01:07:38;;;;;;;29.60;26.08;;;10.70;99.90;;;;;;6166931;23;20177;-82
2023/05/16 01:10:06;;;;;;;32.97;28.55;;;10.80;99.90;;;;;;6167865;23;20232;-81
2023/05/16 01:12:52;;;;;;;31.05;27.70;;;10.60;99.90;;;;;;6140499;23;20195;-83
2023/05/16 01:15:27;;;;;;;29.45;26.42;;;10.70;99.90;;;;;;6178024;23;20149;-83
2023/05/16 01:18:01;;;;;;;37.22;29.95;;;10.80;99.90;;;;;;6156978;23;20157;-85
2023/05/16 01:20:54;;;;;;;31.30;26.73;;;10.80;99.90;;;;;;6178978;23;20166;-85
2023/05/16 01:23:59;;;;;;;30.92;26.80;;;10.80;99.90;;;;;;6180287;23;20201;-83
2023/05/16 01:26:27;;;;;;;31.75;28.27;;;10.60;99.90;;;;;;6181692;23;20177;-85
2023/05/16 01:28:55;;;;;;;33.75;29.48;;;10.50;99.90;;;;;;6182186;23;20199;-83
2023/05/16 01:31:23;;;;;;;39.80;29.55;;;10.70;99.90;;;;;;6181874;23;20157;-81
2023/05/16 01:33:50;;;;;;;34.97;29.75;;;10.70;99.90;;;;;;6181219;23;20181;-86
2023/05/16 01:36:29;;;;;;;37.00;33.10;;;10.30;99.90;;;;;;6179698;23;20184;-85
2023/05/16 01:39:06;;;;;;;36.92;32.90;;;10.20;99.90;;;;;;6176984;23;20176;-87
2023/05/16 01:41:54;;;;;;;42.33;35.60;;;10.20;99.90;;;;;;6177190;23;20177;-87
2023/05/16 01:44:44;;;;;;;43.70;37.95;;;10.10;99.90;;;;;;6176195;23;20196;-85
2023/05/16 01:47:13;;;;;;;57.22;46.58;;;10.20;99.90;;;;;;6149032;23;20184;-81
2023/05/16 01:49:48;;;;;;;54.60;45.55;;;10.20;99.90;;;;;;6165648;23;20247;-81
2023/05/16 01:52:24;;;;;;;54.65;40.25;;;10.10;99.90;;;;;;6165728;23;20169;-81
2023/05/16 01:54:53;;;;;;;45.40;38.20;;;10.30;99.90;;;;;;6164665;23;20169;-82
2023/05/16 01:57:24;;;;;;;43.45;35.58;;;10.30;99.90;;;;;;6163260;23;20185;-82
2023/05/16 01:59:52;;;;;;;40.35;34.55;;;10.30;99.90;;;;;;6162759;23;20560;-81
2023/05/16 02:02:19;;;;;;;42.45;34.55;;;10.30;99.90;;;;;;6164072;23;20380;-80
2023/05/16 02:04:46;;;;;;;40.47;31.98;;;10.30;99.90;;;;;;6137547;23;20236;-80
2023/05/16 02:07:14;;;;;;;37.15;31.52;;;10.40;99.90;;;;;;6163341;23;20184;-81
2023/05/16 02:09:40;;;;;;;37.50;33.38;;;10.30;99.90;;;;;;6162574;23;20184;-83
2023/05/16 02:12:08;;;;;;;29.80;26.58;;;10.20;99.90;;;;;;6138797;23;20170;-82
2023/05/16 02:14:35;;;;;;;33.35;28.85;;;10.10;99.90;;;;;;6164527;23;20193;-84
2023/05/16 02:17:02;;;;;;;32.20;28.42;;;10.10;99.90;;;;;;6137269;23;20227;-81
2023/05/16 02:19:29;;;;;;;33.45;29.75;;;10.00;99.90;;;;;;6163460;23;20177;-83
2023/05/16 02:21:56;;;;;;;33.35;27.60;;;10.10;99.90;;;;;;6137524;23;20697;-86
2023/05/16 02:24:23;;;;;;;34.60;26.55;;;10.10;99.90;;;;;;6162801;23;20209;-81
2023/05/16 02:26:50;;;;;;;32.25;28.00;;;10.10;99.90;;;;;;6162970;23;20181;-82
2023/05/16 02:29:17;;;;;;;30.05;26.80;;;10.30;99.90;;;;;;6163295;23;20185;-81
2023/05/16 02:31:45;;;;;;;31.30;26.70;;;10.40;99.90;;;;;;6137481;23;20214;-81
2023/05/16 02:34:12;;;;;;;34.03;27.73;;;10.50;99.90;;;;;;6138048;23;20189;-86
2023/05/16 02:36:38;;;;;;;34.65;30.95;;;10.50;99.90;;;;;;6163712;23;20176;-82
2023/05/16 02:39:07;;;;;;;32.17;27.10;;;10.40;99.90;;;;;;6163989;23;20176;-81
2023/05/16 02:41:34;;;;;;;28.35;25.55;;;10.40;99.90;;;;;;6138160;23;20177;-83
2023/05/16 02:44:01;;;;;;;28.48;25.63;;;10.40;99.90;;;;;;6163916;23;20394;-84
2023/05/16 02:46:32;;;;;;;30.40;24.73;;;10.40;99.90;;;;;;6163302;23;20189;-81
2023/05/16 02:49:00;;;;;;;29.25;26.15;;;10.30;99.90;;;;;;6162798;23;20158;-80
2023/05/16 02:51:27;;;;;;;27.92;24.75;;;10.30;99.90;;;;;;6137097;23;20569;-83
2023/05/16 02:54:01;;;;;;;27.25;24.45;;;10.30;99.90;;;;;;6137063;23;20181;-80
2023/05/16 02:56:28;;;;;;;28.58;25.15;;;10.30;99.90;;;;;;6162080;23;20184;-84
2023/05/16 02:58:55;;;;;;;29.48;25.80;;;10.30;99.90;;;;;;6161840;23;20197;-80
2023/05/16 03:01:22;;;;;;;30.20;25.42;;;10.20;99.90;;;;;;6162058;23;20161;-82
2023/05/16 03:03:51;;;;;;;27.33;24.42;;;10.20;99.90;;;;;;6162088;23;20292;-83
2023/05/16 03:06:19;;;;;;;29.60;26.35;;;10.40;99.90;;;;;;6161771;23;20207;-83
2023/05/16 03:08:46;;;;;;;29.15;25.27;;;10.30;99.90;;;;;;6162175;23;20201;-83
2023/05/16 03:11:15;;;;;;;26.40;23.60;;;10.20;99.90;;;;;;6164112;23;20177;-81
2023/05/16 03:13:42;;;;;;;26.90;24.15;;;10.20;99.90;;;;;;6166158;23;20188;-80
2023/05/16 03:16:09;;;;;;;29.48;24.40;;;10.30;99.90;;;;;;6164365;23;20458;-84
2023/05/16 03:18:36;;;;;;;29.52;25.63;;;10.20;99.90;;;;;;6163569;23;20189;-83
2023/05/16 03:21:03;;;;;;;29.15;24.83;;;10.20;99.90;;;;;;6163027;23;20177;-83
2023/05/16 03:23:30;;;;;;;28.05;24.13;;;10.20;99.90;;;;;;6163284;23;20208;-82
2023/05/16 03:25:58;;;;;;;27.50;23.67;;;10.50;99.90;;;;;;6164013;23;20177;-86
2023/05/16 03:28:26;;;;;;;28.52;24.60;;;10.50;99.90;;;;;;6163410;23;20185;-83
2023/05/16 03:30:53;;;;;;;28.02;23.90;;;10.60;99.90;;;;;;6162823;23;20204;-82
2023/05/16 03:33:20;;;;;;;32.35;25.58;;;10.60;99.90;;;;;;6161616;23;20184;-82
2023/05/16 03:35:47;;;;;;;23.65;21.25;;;10.70;99.90;;;;;;6161786;23;20193;-81
2023/05/16 03:38:14;;;;;;;28.30;24.05;;;10.80;99.90;;;;;;6137364;23;20232;-81
2023/05/16 03:40:41;;;;;;;26.15;22.00;;;11.10;99.90;;;;;;6160347;23;20189;-82
2023/05/16 03:43:08;;;;;;;27.38;21.90;;;11.30;99.90;;;;;;6161017;23;20481;-80
2023/05/16 03:45:35;;;;;;;27.15;22.13;;;11.30;99.90;;;;;;6161163;23;20181;-81
2023/05/16 03:48:02;;;;;;;22.83;20.50;;;11.30;99.90;;;;;;6161393;23;20200;-80
2023/05/16 03:50:29;;;;;;;23.63;19.40;;;11.30;99.90;;;;;;6136668;23;20185;-80
2023/05/16 03:52:56;;;;;;;20.73;18.70;;;11.40;99.90;;;;;;6164157;23;20240;-79
2023/05/16 03:55:23;;;;;;;20.40;17.85;;;11.50;99.90;;;;;;6137825;23;20275;-80
2023/05/16 03:57:52;;;;;;;23.23;19.73;;;11.40;99.90;;;;;;6161881;23;20365;-83
2023/05/16 04:00:18;;;;;;;20.20;18.13;;;11.40;99.90;;;;;;6161837;23;20188;-82
2023/05/16 04:02:47;;;;;;;25.92;17.92;;;11.50;99.90;;;;;;6162409;23;20188;-84
2023/05/16 04:05:15;;;;;;;21.30;17.52;;;11.60;99.90;;;;;;6161714;23;20217;-83
2023/05/16 04:07:42;;;;;;;19.55;17.65;;;11.80;99.90;;;;;;6160933;23;20192;-84
2023/05/16 04:10:09;;;;;;;19.88;17.77;;;11.70;99.90;;;;;;6135807;23;20384;-83
2023/05/16 04:12:36;;;;;;;20.08;16.80;;;11.90;99.90;;;;;;6162503;23;20704;-81
2023/05/16 04:15:06;;;;;;;19.40;17.40;;;11.90;99.90;;;;;;6172138;23;20192;-85
2023/05/16 04:17:33;;;;;;;17.38;15.52;;;11.90;99.90;;;;;;6176818;23;20177;-83
2023/05/16 04:20:00;;;;;;;18.73;16.83;;;12.00;99.90;;;;;;6177868;23;20197;-88
2023/05/16 04:22:27;;;;;;;18.83;15.63;;;12.00;99.90;;;;;;6164937;23;20240;-83
2023/05/16 04:24:54;;;;;;;19.30;14.23;;;12.10;99.90;;;;;;6137335;23;20432;-85
2023/05/16 04:27:22;;;;;;;17.80;16.05;;;12.30;99.90;;;;;;6162026;23;20240;-82
2023/05/16 04:29:49;;;;;;;18.08;16.23;;;12.40;99.90;;;;;;6161940;23;20227;-82
2023/05/16 04:32:16;;;;;;;25.38;17.63;;;12.40;99.90;;;;;;6162023;23;20176;-83
2023/05/16 04:34:45;;;;;;;17.80;14.57;;;12.20;99.90;;;;;;6135513;23;20185;-84
2023/05/16 04:37:12;;;;;;;20.85;14.90;;;12.30;99.90;;;;;;6134055;23;20204;-82
2023/05/16 04:39:39;;;;;;;14.20;12.85;;;12.40;99.90;;;;;;6159665;23;20211;-84
2023/05/16 04:42:06;;;;;;;15.23;13.82;;;12.40;99.90;;;;;;6130392;23;20196;-84
2023/05/16 04:44:33;;;;;;;15.63;13.10;;;12.50;99.90;;;;;;6132909;23;20405;-83
2023/05/16 04:47:00;;;;;;;17.15;14.30;;;12.50;99.90;;;;;;6159032;23;20195;-82
2023/05/16 04:49:27;;;;;;;17.63;13.43;;;12.60;99.90;;;;;;6133290;23;20185;-85
2023/05/16 04:51:54;;;;;;;14.02;12.73;;;12.70;99.90;;;;;;6133374;23;20189;-81
2023/05/16 04:54:21;;;;;;;15.55;12.05;;;12.90;99.90;;;;;;6158408;23;20185;-83
2023/05/16 04:56:48;;;;;;;13.68;12.48;;;12.90;99.90;;;;;;6159602;23;20204;-83
2023/05/16 04:59:15;;;;;;;14.27;11.13;;;13.10;99.90;;;;;;6158996;23;20229;-85
2023/05/16 05:01:43;;;;;;;13.23;11.93;;;13.20;99.90;;;;;;6162500;23;20189;-85
2023/05/16 05:04:10;;;;;;;12.00;11.00;;;13.20;99.90;;;;;;6159991;23;20208;-82
2023/05/16 05:06:37;;;;;;;12.23;10.98;;;13.30;99.90;;;;;;6162010;23;20185;-83
2023/05/16 05:09:05;;;;;;;15.40;11.18;;;13.40;99.90;;;;;;6161704;23;20183;-86
2023/05/16 05:11:32;;;;;;;12.07;10.75;;;13.60;99.90;;;;;;6161195;23;20181;-82
2023/05/16 05:13:59;;;;;;;12.25;10.55;;;13.50;99.90;;;;;;6164448;23;20203;-83
2023/05/16 05:16:26;;;;;;;11.43;10.30;;;13.70;99.90;;;;;;6178149;23;20161;-83
2023/05/16 05:18:52;;;;;;;11.63;10.60;;;13.90;99.90;;;;;;6155929;23;20169;-84
2023/05/16 05:21:20;;;;;;;16.02;12.05;;;14.20;99.90;;;;;;6175245;23;20185;-85
2023/05/16 05:23:48;;;;;;;11.27;10.27;;;14.30;99.90;;;;;;6138398;23;20181;-87
2023/05/16 05:26:15;;;;;;;17.55;13.00;;;14.40;99.90;;;;;;6162925;23;20232;-84
2023/05/16 05:28:42;;;;;;;11.13;9.98;;;14.40;99.90;;;;;;6162678;23;20189;-87
2023/05/16 05:31:19;;;;;;;9.88;8.98;;;14.50;99.90;;;;;;6161388;23;20675;-87
2023/05/16 05:33:47;;;;;;;10.63;9.80;;;14.70;99.90;;;;;;6161021;23;20192;-87
2023/05/16 05:36:15;;;;;;;14.90;10.20;;;15.00;99.90;;;;;;6160796;23;20407;-85
2023/05/16 05:38:42;;;;;;;12.57;11.13;;;15.10;99.90;;;;;;6161946;23;20403;-81
2023/05/16 05:41:10;;;;;;;9.93;8.90;;;15.10;99.90;;;;;;6136591;23;20181;-83
2023/05/16 05:43:37;;;;;;;11.00;9.20;;;15.10;99.90;;;;;;6162053;23;20444;-81
2023/05/16 05:46:04;;;;;;;9.97;8.97;;;15.20;99.90;;;;;;6160492;23;20445;-85
2023/05/16 05:48:31;;;;;;;9.33;8.57;;;15.30;99.90;;;;;;6160092;23;20474;-84
2023/05/16 05:50:58;;;;;;;11.37;10.13;;;15.40;99.90;;;;;;6161466;23;20370;-81
2023/05/16 05:53:25;;;;;;;9.30;8.40;;;15.60;99.90;;;;;;6162837;23;20373;-83
2023/05/16 05:55:55;;;;;;;7.67;6.97;;;15.70;99.90;;;;;;6162391;23;20407;-83
2023/05/16 05:58:22;;;;;;;9.47;8.60;;;15.70;99.90;;;;;;6161570;23;20399;-81
2023/05/16 06:00:49;;;;;;;8.90;8.07;;;15.70;99.90;;;;;;6161028;23;20419;-84
2023/05/16 06:03:17;;;;;;;9.30;7.50;;;15.80;99.90;;;;;;6171378;23;20399;-79
2023/05/16 06:05:44;;;;;;;10.73;9.50;;;16.10;99.90;;;;;;6135228;23;20454;-84
2023/05/16 06:08:11;;;;;;;11.00;10.00;;;16.10;99.90;;;;;;6137737;23;20366;-83
2023/05/16 06:10:38;;;;;;;9.17;8.00;;;16.20;99.90;;;;;;6141110;23;20423;-82
2023/05/16 06:13:05;;;;;;;9.63;8.73;;;16.50;99.90;;;;;;6164958;23;20433;-84
2023/05/16 06:15:32;;;;;;;9.60;8.63;;;17.00;99.90;;;;;;6164957;23;20430;-86
2023/05/16 06:17:59;;;;;;;10.00;9.10;;;17.50;99.90;;;;;;6159427;23;20412;-86
2023/05/16 06:20:29;;;;;;;10.77;9.77;;;17.60;99.90;;;;;;6159143;23;20701;-80
2023/05/16 06:22:56;;;;;;;9.47;8.60;;;17.90;99.90;;;;;;6159711;23;20424;-80
2023/05/16 06:25:25;;;;;;;8.70;7.90;;;18.10;99.90;;;;;;6159119;23;20635;-82
2023/05/16 06:27:52;;;;;;;9.53;8.73;;;18.10;99.90;;;;;;6158909;23;20497;-80
2023/05/16 06:30:19;;;;;;;9.60;8.80;;;18.40;99.90;;;;;;6134680;23;20370;-84
2023/05/16 06:32:46;;;;;;;9.20;8.13;;;18.70;99.90;;;;;;6134264;23;20377;-83
2023/05/16 06:35:13;;;;;;;9.73;8.93;;;18.70;99.90;;;;;;6161051;23;20577;-80
2023/05/16 06:37:40;;;;;;;10.47;9.47;;;19.00;99.90;;;;;;6133677;23;20366;-81
2023/05/16 06:40:09;;;;;;;9.40;8.27;;;18.60;99.90;;;;;;6136328;23;20365;-85
2023/05/16 06:42:36;;;;;;;10.60;9.67;;;18.50;99.90;;;;;;6160108;23;20370;-84
2023/05/16 06:45:06;;;;;;;9.60;8.70;;;18.70;99.90;;;;;;6158691;23;20409;-80
2023/05/16 06:47:33;;;;;;;10.00;8.43;;;19.00;99.90;;;;;;6158575;23;20377;-80
2023/05/16 06:50:01;;;;;;;8.10;7.50;;;19.30;99.90;;;;;;6159638;23;20362;-85
2023/05/16 06:52:28;;;;;;;9.37;8.50;;;19.70;99.90;;;;;;6133911;23;20370;-83
2023/05/16 06:54:58;;;;;;;10.10;9.10;;;20.10;99.90;;;;;;6135393;23;20410;-80
2023/05/16 06:57:25;;;;;;;9.60;8.70;;;20.30;99.90;;;;;;6159753;23;20366;-83
2023/05/16 06:59:52;;;;;;;9.90;9.00;;;20.20;99.90;;;;;;6136294;23;20650;-84
2023/05/16 07:02:24;;;;;;;10.13;9.27;;;20.30;99.90;;;;;;6159701;23;20722;-86
2023/05/16 07:04:51;;;;;;;8.40;7.63;;;21.00;99.90;;;;;;6158879;23;20413;-84
2023/05/16 07:07:18;;;;;;;8.73;8.00;;;21.50;99.90;;;;;;6158451;23;20404;-82
2023/05/16 07:09:46;;;;;;;9.67;8.77;;;21.90;99.90;;;;;;6134524;23;20413;-79
2023/05/16 07:12:13;;;;;;;9.40;8.70;;;21.60;99.90;;;;;;6133385;23;20449;-80
2023/05/16 07:14:42;;;;;;;9.03;8.23;;;21.90;99.90;;;;;;6164316;23;20738;-81
2023/05/16 07:17:10;;;;;;;9.20;8.50;;;23.10;99.90;;;;;;6168717;23;20414;-81
2023/05/16 07:19:37;;;;;;;8.50;7.70;;;24.00;99.90;;;;;;6132672;23;20388;-84
2023/05/16 07:22:05;;;;;;;7.70;7.03;;;25.00;99.90;;;;;;6135772;23;20440;-83
2023/05/16 07:24:32;;;;;;;8.93;8.03;;;25.90;99.90;;;;;;6161012;23;20439;-83
2023/05/16 07:27:01;;;;;;;9.87;8.83;;;26.80;99.90;;;;;;6160972;23;20554;-83
2023/05/16 07:29:29;;;;;;;9.00;8.30;;;27.10;99.90;;;;;;6160377;23;20809;-80
2023/05/16 07:31:56;;;;;;;7.67;7.03;;;26.40;99.90;;;;;;6159597;23;20475;-84
2023/05/16 07:34:24;;;;;;;9.57;8.60;;;26.80;99.90;;;;;;6134289;23;20391;-83
2023/05/16 07:36:52;;;;;;;7.80;7.10;;;27.30;99.90;;;;;;6161028;23;20395;-83
2023/05/16 07:39:20;;;;;;;8.57;7.73;;;26.70;99.90;;;;;;6162157;23;20732;-86
2023/05/16 07:41:47;;;;;;;8.50;7.80;;;26.00;99.90;;;;;;6161917;23;20395;-83
2023/05/16 07:44:13;;;;;;;7.83;7.23;;;25.00;99.90;;;;;;6161174;23;20406;-83
2023/05/16 07:46:43;;;;;;;8.50;7.63;;;24.10;99.90;;;;;;6161251;23;20411;-84
2023/05/16 07:49:13;;;;;;;9.70;7.10;;;24.30;99.90;;;;;;6162375;23;20422;-80
2023/05/16 07:51:40;;;;;;;9.27;8.43;;;23.80;99.90;;;;;;6163473;23;20377;-81
2023/05/16 07:54:10;;;;;;;9.43;8.50;;;24.40;99.90;;;;;;6162256;23;20418;-81
2023/05/16 07:56:37;;;;;;;9.53;8.63;;;25.00;99.90;;;;;;6162562;23;20682;-80
2023/05/16 07:59:04;;;;;;;9.33;8.53;;;24.60;99.90;;;;;;6137009;23;20567;-81
2023/05/16 08:01:32;;;;;;;8.83;8.03;;;23.90;99.90;;;;;;6163525;23;20384;-85
2023/05/16 08:03:59;;;;;;;9.80;9.00;;;24.00;99.90;;;;;;6163524;23;20395;-86
2023/05/16 08:06:26;;;;;;;11.40;10.20;;;23.90;99.90;;;;;;6161493;23;20837;-85
2023/05/16 08:08:53;;;;;;;11.23;9.70;;;23.20;99.90;;;;;;6161968;23;20399;-83
2023/05/16 08:11:21;;;;;;;10.30;9.27;;;22.50;99.90;;;;;;6136901;23;20427;-84
2023/05/16 08:13:48;;;;;;;10.57;8.10;;;22.10;99.90;;;;;;6162210;23;20557;-83
2023/05/16 08:16:15;;;;;;;9.93;9.13;;;21.50;99.90;;;;;;6164958;23;20427;-83
2023/05/16 08:18:42;;;;;;;7.93;7.17;;;21.40;99.90;;;;;;6150809;23;20398;-84
2023/05/16 08:21:09;;;;;;;8.73;8.10;;;21.20;99.90;;;;;;6150596;23;20403;-83
2023/05/16 08:23:37;;;;;;;9.27;8.47;;;21.00;99.90;;;;;;6143640;23;20431;-82
2023/05/16 08:26:04;;;;;;;10.03;9.23;;;20.40;99.90;;;;;;6162615;23;20446;-82
2023/05/16 08:28:32;;;;;;;9.80;8.90;;;20.60;99.90;;;;;;6162353;23;20407;-81
2023/05/16 08:30:58;;;;;;;11.63;10.37;;;21.60;99.90;;;;;;6161666;23;20405;-81
2023/05/16 08:33:25;;;;;;;10.80;9.70;;;21.90;99.90;;;;;;6162715;23;20374;-83
2023/05/16 08:35:52;;;;;;;9.17;8.47;;;22.40;99.90;;;;;;6163165;23;20403;-87
2023/05/16 08:38:19;;;;;;;9.90;9.10;;;22.30;99.90;;;;;;6165071;23;20403;-86
2023/05/16 08:40:46;;;;;;;12.00;11.10;;;22.30;99.90;;;;;;6164196;23;20450;-82
2023/05/16 08:43:13;;;;;;;13.40;9.03;;;21.30;99.90;;;;;;6161312;23;20453;-82
2023/05/16 08:45:41;;;;;;;9.60;8.70;;;20.60;99.90;;;;;;6161985;23;20434;-84
2023/05/16 08:48:10;;;;;;;9.53;8.73;;;22.20;99.90;;;;;;6162598;23;20374;-84
2023/05/16 08:50:38;;;;;;;9.43;8.63;;;25.60;99.90;;;;;;6162968;23;20640;-84
2023/05/16 08:53:08;;;;;;;9.67;8.80;;;25.90;99.90;;;;;;6162862;23;20395;-83
2023/05/16 08:55:36;;;;;;;9.13;8.33;;;24.70;99.90;;;;;;6163097;23;20419;-83
2023/05/16 08:58:05;;;;;;;9.63;8.83;;;25.50;99.90;;;;;;6136137;23;20740;-84
2023/05/16 09:00:32;;;;;;;9.60;8.90;;;25.00;99.90;;;;;;6162791;23;20750;-83
2023/05/16 09:03:00;;;;;;;9.33;8.53;;;23.90;99.90;;;;;;6138824;23;20431;-87
2023/05/16 09:05:35;;;;;;;8.87;8.17;;;23.60;99.90;;;;;;6151884;23;20401;-84
2023/05/16 09:08:02;;;;;;;10.03;8.83;;;23.20;99.90;;;;;;6176626;23;20511;-86
2023/05/16 09:10:29;;;;;;;9.27;8.53;;;22.70;99.90;;;;;;6176124;23;20411;-84
2023/05/16 09:12:56;;;;;;;8.80;7.90;;;22.60;99.90;;;;;;6167645;23;20666;-84
2023/05/16 09:15:31;;;;;;;13.40;9.00;;;22.20;99.90;;;;;;6166229;23;20362;-86
2023/05/16 09:18:01;;;;;;;10.00;9.10;;;22.70;99.90;;;;;;6165328;23;20773;-86
2023/05/16 09:20:30;;;;;;;8.87;8.07;;;24.90;99.90;;;;;;6165264;23;20399;-83
2023/05/16 09:22:58;;;;;;;9.33;8.40;;;25.70;99.90;;;;;;6166026;23;20442;-83
2023/05/16 09:25:29;;;;;;;8.33;7.73;;;24.90;99.90;;;;;;6165865;23;20441;-83
2023/05/16 09:28:00;;;;;;;8.80;8.00;;;24.20;99.90;;;;;;6164217;23;20620;-83
2023/05/16 09:30:33;;;;;;;9.13;8.30;;;23.10;99.90;;;;;;6164833;23;20598;-85
2023/05/16 09:33:00;;;;;;;10.00;8.97;;;22.10;99.90;;;;;;6166178;23;20451;-85
2023/05/16 09:35:28;;;;;;;13.80;8.90;;;21.90;99.90;;;;;;6164622;23;20434;-82
2023/05/16 09:37:58;;;;;;;10.40;9.43;;;22.20;99.90;;;;;;6166417;23;20402;-86
2023/05/16 09:40:25;;;;;;;10.40;9.40;;;22.90;99.90;;;;;;6164399;23;20403;-83
2023/05/16 09:43:04;;;;;;;10.00;9.10;;;23.20;99.90;;;;;;6141576;23;20386;-84
2023/05/16 09:45:32;;;;;;;9.40;8.70;;;23.50;99.90;;;;;;6149911;23;20450;-82
2023/05/16 09:48:08;;;;;;;9.93;9.17;;;23.70;99.90;;;;;;6152465;23;20421;-81
2023/05/16 09:50:36;;;;;;;10.37;9.47;;;23.40;99.90;;;;;;6152584;23;20357;-83
2023/05/16 09:53:04;;;;;;;9.97;9.00;;;23.50;99.90;;;;;;6152238;23;20423;-83
2023/05/16 09:55:31;;;;;;;10.10;9.40;;;23.20;99.90;;;;;;6176985;23;20619;-81
2023/05/16 09:57:58;;;;;;;9.77;8.90;;;22.40;99.90;;;;;;6152669;23;20419;-81
2023/05/16 10:00:30;;;;;;;9.50;8.73;;;22.00;99.90;;;;;;6177048;23;20437;-84
2023/05/16 10:03:00;;;;;;;10.80;9.70;;;22.20;99.90;;;;;;6174237;23;20387;-80
2023/05/16 10:05:31;;;;;;;9.90;9.10;;;22.20;99.90;;;;;;6176705;23;20448;-83
2023/05/16 10:08:03;;;;;;;9.87;9.00;;;21.90;99.90;;;;;;6164552;23;20473;-83
2023/05/16 10:10:37;;;;;;;12.00;9.60;;;21.60;99.90;;;;;;6163340;23;20430;-83
2023/05/16 10:13:06;;;;;;;9.63;8.83;;;21.70;99.90;;;;;;6163735;23;20425;-84
2023/05/16 10:15:36;;;;;;;9.77;8.80;;;22.10;99.90;;;;;;6162049;23;20381;-84
2023/05/16 10:18:06;;;;;;;8.83;8.00;;;22.50;99.90;;;;;;6162375;23;20403;-86
2023/05/16 10:20:34;;;;;;;11.17;10.17;;;22.80;99.90;;;;;;6161703;23;20388;-84
2023/05/16 10:23:02;;;;;;;10.37;9.37;;;23.10;99.90;;;;;;6163836;23;20471;-83
2023/05/16 10:25:40;;;;;;;10.63;9.70;;;23.10;99.90;;;;;;6141336;23;20435;-84
2023/05/16 10:28:11;;;;;;;10.70;9.90;;;23.20;99.90;;;;;;6177229;23;20391;-85
2023/05/16 10:30:42;;;;;;;12.83;10.20;;;23.60;99.90;;;;;;6176141;23;20474;-84
2023/05/16 10:33:15;;;;;;;13.23;11.77;;;23.40;99.90;;;;;;6142629;23;20388;-83
2023/05/16 10:35:43;;;;;;;10.60;9.77;;;22.90;99.90;;;;;;6163997;23;20391;-83
2023/05/16 10:38:15;;;;;;;12.23;11.30;;;22.70;99.90;;;;;;6164660;23;20430;-84
2023/05/16 10:40:42;;;;;;;12.30;11.10;;;22.70;99.90;;;;;;6162483;23;20580;-86
2023/05/16 10:43:09;;;;;;;13.17;11.80;;;22.40;99.90;;;;;;6164075;23;20404;-82
2023/05/16 10:45:42;;;;;;;11.70;10.70;;;22.20;99.90;;;;;;6162435;23;20435;-88
2023/05/16 10:48:11;;;;;;;11.70;10.70;;;22.50;99.90;;;;;;6163811;23;20632;-84
2023/05/16 10:50:44;;;;;;;12.40;11.37;;;22.50;99.90;;;;;;6137521;23;20399;-86
2023/05/16 10:53:22;;;;;;;13.07;11.87;;;22.60;99.90;;;;;;6163778;23;20379;-84
2023/05/16 10:56:05;;;;;;;13.57;12.47;;;22.60;99.90;;;;;;6163207;23;20429;-82
2023/05/16 10:58:35;;;;;;;12.03;10.93;;;22.70;99.90;;;;;;6162321;23;20395;-85
2023/05/16 11:01:21;;;;;;;11.90;10.90;;;22.40;99.90;;;;;;6165057;23;20399;-86
2023/05/16 11:04:06;;;;;;;12.83;11.73;;;22.10;99.90;;;;;;6164674;23;20688;-84
2023/05/16 11:06:41;;;;;;;13.93;12.63;;;22.20;99.90;;;;;;6163380;23;20433;-82
2023/05/16 11:09:12;;;;;;;13.20;11.80;;;22.10;99.90;;;;;;6167064;23;20358;-86
2023/05/16 11:11:52;;;;;;;20.07;14.37;;;22.20;99.90;;;;;;6166633;23;20376;-85
2023/05/16 11:14:27;;;;;;;18.60;14.00;;;22.50;99.90;;;;;;6142287;23;20410;-86
2023/05/16 11:17:08;;;;;;;15.27;13.67;;;22.90;99.90;;;;;;6139232;23;20375;-85
2023/05/16 11:19:40;;;;;;;15.60;13.77;;;22.50;99.90;;;;;;6167587;23;20446;-86
2023/05/16 11:22:14;;;;;;;15.70;13.70;;;22.50;99.90;;;;;;6167203;23;20398;-85
2023/05/16 11:24:55;;;;;;;16.33;14.73;;;22.10;99.90;;;;;;6139038;23;20456;-87
2023/05/16 11:27:34;;;;;;;14.63;13.23;;;22.00;99.90;;;;;;6164741;23;20440;-84
2023/05/16 11:30:12;;;;;;;18.40;14.03;;;21.80;99.90;;;;;;6162296;23;20465;-84
2023/05/16 11:32:41;;;;;;;17.77;13.20;;;22.20;99.90;;;;;;6162531;23;20370;-88
2023/05/16 11:35:12;;;;;;;16.73;14.93;;;22.30;99.90;;;;;;6163436;23;20358;-85
2023/05/16 11:37:41;;;;;;;16.00;14.30;;;22.40;99.90;;;;;;6163621;23;20409;-83
2023/05/16 11:40:10;;;;;;;14.43;13.03;;;21.70;99.90;;;;;;6138340;23;20391;-85
2023/05/16 11:42:41;;;;;;;15.33;13.73;;;21.50;99.90;;;;;;6164434;23;20403;-85
2023/05/16 11:45:13;;;;;;;14.77;13.07;;;21.60;99.90;;;;;;6168772;23;20856;-84
2023/05/16 11:47:43;;;;;;;15.57;13.03;;;21.40;99.90;;;;;;6167113;23;20372;-87
2023/05/16 11:50:12;;;;;;;15.43;13.83;;;21.40;99.90;;;;;;6142052;23;20366;-86
2023/05/16 11:52:44;;;;;;;13.93;12.50;;;21.40;99.90;;;;;;6170669;23;20409;-88
2023/05/16 11:55:13;;;;;;;19.80;15.23;;;21.60;99.90;;;;;;6166210;23;20362;-82
2023/05/16 11:57:58;;;;;;;17.07;15.27;;;21.20;99.90;;;;;;6143637;23;20365;-84
2023/05/16 12:00:26;;;;;;;21.57;15.57;;;20.50;99.90;;;;;;6164742;23;20397;-80
2023/05/16 12:03:03;;;;;;;17.20;14.80;;;20.20;99.90;;;;;;6165379;23;20536;-82
2023/05/16 12:05:32;;;;;;;16.57;14.87;;;19.90;99.90;;;;;;6164843;23;20445;-86
2023/05/16 12:08:01;;;;;;;15.50;13.67;;;19.80;99.90;;;;;;6166836;23;20395;-85
2023/05/16 12:10:32;;;;;;;17.13;15.53;;;19.90;99.90;;;;;;6171119;23;20535;-86
2023/05/16 12:13:03;;;;;;;17.30;15.57;;;19.80;99.90;;;;;;6174585;23;20361;-85
2023/05/16 12:15:30;;;;;;;17.37;15.67;;;19.90;99.90;;;;;;6145787;23;20433;-84
2023/05/16 12:17:57;;;;;;;16.40;14.87;;;19.80;99.90;;;;;;6165859;23;20386;-82
2023/05/16 12:20:25;;;;;;;15.30;13.80;;;19.90;99.90;;;;;;6165042;23;20498;-82
2023/05/16 12:22:52;;;;;;;18.40;15.20;;;19.80;99.90;;;;;;6164361;23;20462;-82
2023/05/16 12:25:27;;;;;;;17.17;15.37;;;19.90;99.90;;;;;;6162605;23;20374;-82
2023/05/16 12:27:56;;;;;;;17.63;14.77;;;19.60;99.90;;;;;;6162700;23;20369;-85
2023/05/16 12:30:25;;;;;;;15.33;13.73;;;19.40;99.90;;;;;;6168924;23;20463;-84
2023/05/16 12:33:12;;;;;;;14.70;13.20;;;19.40;99.90;;;;;;6163452;23;20780;-82
2023/05/16 12:35:46;;;;;;;16.50;14.90;;;19.40;99.90;;;;;;6163104;23;20457;-88
2023/05/16 12:38:14;;;;;;;16.43;14.73;;;19.60;99.90;;;;;;6163944;23;20401;-87
2023/05/16 12:40:43;;;;;;;19.87;17.87;;;19.70;99.90;;;;;;6166020;23;20365;-84
2023/05/16 12:43:14;;;;;;;16.97;14.57;;;19.70;99.90;;;;;;6136419;23;20405;-82
2023/05/16 12:45:48;;;;;;;14.13;12.83;;;19.70;99.90;;;;;;6162148;23;20397;-84